sensor_id;sensor_type;location;lat;lon;timestamp;P1;durP1;ratioP1;P2;durP2;ratioP2
14203;SDS011;7185;51.854;6.622;2023-06-14T00:31:48;8.90;;;4.75;;
14203;SDS011;7185;51.854;6.622;2023-06-14T00:34:19;7.88;;;4.03;;
14203;SDS011;7185;51.854;6.622;2023-06-14T00:36:51;7.95;;;4.40;;
14203;SDS011;7185;51.854;6.622;2023-06-14T00:39:22;7.32;;;3.72;;
14203;SDS011;7185;51.854;6.622;2023-06-14T00:41:54;9.32;;;4.43;;
14203;SDS011;7185;51.854;6.622;2023-06-14T00:44:25;10.82;;;3.97;;
14203;SDS011;7185;51.854;6.622;2023-06-14T00:46:58;6.15;;;4.00;;
14203;SDS011;7185;51.854;6.622;2023-06-14T00:49:30;5.28;;;3.60;;
14203;SDS011;7185;51.854;6.622;2023-06-14T00:52:02;7.30;;;4.45;;
14203;SDS011;7185;51.854;6.622;2023-06-14T00:54:34;7.60;;;3.65;;
14203;SDS011;7185;51.854;6.622;2023-06-14T00:57:06;7.43;;;3.80;;
14203;SDS011;7185;51.854;6.622;2023-06-14T00:59:38;9.25;;;3.90;;
14203;SDS011;7185;51.854;6.622;2023-06-14T01:02:14;7.82;;;3.90;;
14203;SDS011;7185;51.854;6.622;2023-06-14T01:04:46;8.10;;;3.65;;
14203;SDS011;7185;51.854;6.622;2023-06-14T01:07:22;9.90;;;3.65;;
14203;SDS011;7185;51.854;6.622;2023-06-14T01:09:58;10.27;;;3.83;;
14203;SDS011;7185;51.854;6.622;2023-06-14T01:15:19;6.70;;;3.38;;
14203;SDS011;7185;51.854;6.622;2023-06-14T01:17:53;5.53;;;3.70;;
14203;SDS011;7185;51.854;6.622;2023-06-14T01:20:33;8.65;;;3.85;;
14203;SDS011;7185;51.854;6.622;2023-06-14T01:23:08;6.40;;;3.70;;
14203;SDS011;7185;51.854;6.622;2023-06-14T01:25:39;7.72;;;3.72;;
14203;SDS011;7185;51.854;6.622;2023-06-14T01:28:11;7.35;;;3.53;;
14203;SDS011;7185;51.854;6.622;2023-06-14T01:30:43;7.32;;;3.75;;
14203;SDS011;7185;51.854;6.622;2023-06-14T01:33:16;7.05;;;3.42;;
14203;SDS011;7185;51.854;6.622;2023-06-14T01:35:49;5.35;;;3.60;;
14203;SDS011;7185;51.854;6.622;2023-06-14T01:38:23;5.72;;;3.50;;
14203;SDS011;7185;51.854;6.622;2023-06-14T01:40:55;8.35;;;3.97;;
14203;SDS011;7185;51.854;6.622;2023-06-14T01:43:28;7.40;;;3.15;;
14203;SDS011;7185;51.854;6.622;2023-06-14T01:46:00;6.25;;;3.70;;
14203;SDS011;7185;51.854;6.622;2023-06-14T01:48:32;7.03;;;3.70;;
14203;SDS011;7185;51.854;6.622;2023-06-14T01:51:04;5.63;;;3.45;;
14203;SDS011;7185;51.854;6.622;2023-06-14T01:53:37;6.70;;;3.55;;
14203;SDS011;7185;51.854;6.622;2023-06-14T01:56:08;6.70;;;3.30;;
14203;SDS011;7185;51.854;6.622;2023-06-14T01:58:39;4.65;;;3.25;;
14203;SDS011;7185;51.854;6.622;2023-06-14T02:01:11;6.38;;;3.45;;
14203;SDS011;7185;51.854;6.622;2023-06-14T02:03:42;5.80;;;3.55;;
14203;SDS011;7185;51.854;6.622;2023-06-14T02:06:15;7.07;;;3.53;;
14203;SDS011;7185;51.854;6.622;2023-06-14T02:08:48;5.43;;;3.25;;
14203;SDS011;7185;51.854;6.622;2023-06-14T02:11:20;9.85;;;3.80;;
14203;SDS011;7185;51.854;6.622;2023-06-14T02:13:51;5.78;;;3.30;;
14203;SDS011;7185;51.854;6.622;2023-06-14T02:16:23;11.63;;;3.80;;
14203;SDS011;7185;51.854;6.622;2023-06-14T02:18:57;8.50;;;3.65;;
14203;SDS011;7185;51.854;6.622;2023-06-14T02:21:29;6.72;;;3.47;;
14203;SDS011;7185;51.854;6.622;2023-06-14T02:24:02;11.32;;;3.40;;
14203;SDS011;7185;51.854;6.622;2023-06-14T02:26:33;7.03;;;3.50;;
14203;SDS011;7185;51.854;6.622;2023-06-14T02:29:05;8.10;;;3.72;;
14203;SDS011;7185;51.854;6.622;2023-06-14T02:31:40;5.25;;;3.08;;
14203;SDS011;7185;51.854;6.622;2023-06-14T02:34:11;5.57;;;3.10;;
14203;SDS011;7185;51.854;6.622;2023-06-14T02:36:43;8.30;;;3.50;;
14203;SDS011;7185;51.854;6.622;2023-06-14T02:39:17;8.45;;;3.30;;
14203;SDS011;7185;51.854;6.622;2023-06-14T02:41:50;7.93;;;3.08;;
14203;SDS011;7185;51.854;6.622;2023-06-14T02:44:24;5.45;;;3.28;;
14203;SDS011;7185;51.854;6.622;2023-06-14T02:46:55;5.60;;;3.40;;
14203;SDS011;7185;51.854;6.622;2023-06-14T02:49:28;7.15;;;3.42;;
14203;SDS011;7185;51.854;6.622;2023-06-14T02:52:00;6.00;;;3.20;;
14203;SDS011;7185;51.854;6.622;2023-06-14T02:54:34;9.38;;;3.63;;
14203;SDS011;7185;51.854;6.622;2023-06-14T02:57:06;6.53;;;3.25;;
14203;SDS011;7185;51.854;6.622;2023-06-14T02:59:38;9.15;;;3.83;;
14203;SDS011;7185;51.854;6.622;2023-06-14T03:02:09;9.95;;;3.40;;
14203;SDS011;7185;51.854;6.622;2023-06-14T03:04:41;8.63;;;3.50;;
14203;SDS011;7185;51.854;6.622;2023-06-14T03:07:14;6.35;;;3.45;;
14203;SDS011;7185;51.854;6.622;2023-06-14T03:09:51;6.35;;;3.17;;
14203;SDS011;7185;51.854;6.622;2023-06-14T03:12:22;6.10;;;2.95;;
14203;SDS011;7185;51.854;6.622;2023-06-14T03:14:55;5.65;;;3.40;;
14203;SDS011;7185;51.854;6.622;2023-06-14T03:17:27;7.47;;;3.25;;
14203;SDS011;7185;51.854;6.622;2023-06-14T03:20:00;5.63;;;3.17;;
14203;SDS011;7185;51.854;6.622;2023-06-14T03:22:31;6.97;;;3.42;;
14203;SDS011;7185;51.854;6.622;2023-06-14T03:25:06;6.40;;;3.42;;
14203;SDS011;7185;51.854;6.622;2023-06-14T03:27:39;6.63;;;3.35;;
14203;SDS011;7185;51.854;6.622;2023-06-14T03:30:11;5.30;;;3.33;;
14203;SDS011;7185;51.854;6.622;2023-06-14T03:32:42;6.38;;;3.55;;
14203;SDS011;7185;51.854;6.622;2023-06-14T03:35:14;6.15;;;3.35;;
14203;SDS011;7185;51.854;6.622;2023-06-14T03:37:47;10.50;;;3.60;;
14203;SDS011;7185;51.854;6.622;2023-06-14T03:40:20;5.60;;;3.22;;
14203;SDS011;7185;51.854;6.622;2023-06-14T03:42:52;6.93;;;3.72;;
14203;SDS011;7185;51.854;6.622;2023-06-14T03:45:23;7.65;;;3.42;;
14203;SDS011;7185;51.854;6.622;2023-06-14T03:47:55;5.95;;;3.28;;
14203;SDS011;7185;51.854;6.622;2023-06-14T03:50:26;7.05;;;3.20;;
14203;SDS011;7185;51.854;6.622;2023-06-14T03:52:58;8.90;;;3.60;;
14203;SDS011;7185;51.854;6.622;2023-06-14T03:55:32;5.97;;;3.30;;
14203;SDS011;7185;51.854;6.622;2023-06-14T03:58:04;6.38;;;3.35;;
14203;SDS011;7185;51.854;6.622;2023-06-14T04:00:36;8.48;;;3.78;;
14203;SDS011;7185;51.854;6.622;2023-06-14T04:03:08;7.82;;;3.50;;
14203;SDS011;7185;51.854;6.622;2023-06-14T04:05:40;6.25;;;3.40;;
14203;SDS011;7185;51.854;6.622;2023-06-14T04:08:12;6.40;;;3.10;;
14203;SDS011;7185;51.854;6.622;2023-06-14T04:10:46;6.70;;;3.47;;
14203;SDS011;7185;51.854;6.622;2023-06-14T04:13:17;6.25;;;3.17;;
14203;SDS011;7185;51.854;6.622;2023-06-14T04:15:49;10.77;;;3.40;;
14203;SDS011;7185;51.854;6.622;2023-06-14T04:18:20;6.82;;;3.60;;
14203;SDS011;7185;51.854;6.622;2023-06-14T04:20:52;6.78;;;3.15;;
14203;SDS011;7185;51.854;6.622;2023-06-14T04:23:24;5.95;;;3.10;;
14203;SDS011;7185;51.854;6.622;2023-06-14T04:25:59;8.00;;;3.20;;
14203;SDS011;7185;51.854;6.622;2023-06-14T04:28:32;5.85;;;3.40;;
14203;SDS011;7185;51.854;6.622;2023-06-14T04:31:07;6.35;;;3.22;;
14203;SDS011;7185;51.854;6.622;2023-06-14T04:33:40;5.13;;;2.83;;
14203;SDS011;7185;51.854;6.622;2023-06-14T04:36:15;11.33;;;3.53;;
14203;SDS011;7185;51.854;6.622;2023-06-14T04:38:47;11.20;;;3.47;;
14203;SDS011;7185;51.854;6.622;2023-06-14T04:41:20;13.57;;;4.15;;
14203;SDS011;7185;51.854;6.622;2023-06-14T04:43:53;7.32;;;3.55;;
14203;SDS011;7185;51.854;6.622;2023-06-14T04:46:24;7.15;;;3.33;;
14203;SDS011;7185;51.854;6.622;2023-06-14T04:48:58;10.18;;;3.47;;
14203;SDS011;7185;51.854;6.622;2023-06-14T04:51:32;6.68;;;3.35;;
14203;SDS011;7185;51.854;6.622;2023-06-14T04:54:05;5.63;;;3.00;;
14203;SDS011;7185;51.854;6.622;2023-06-14T04:56:41;8.95;;;3.17;;
14203;SDS011;7185;51.854;6.622;2023-06-14T04:59:13;7.43;;;3.10;;
14203;SDS011;7185;51.854;6.622;2023-06-14T05:01:47;6.53;;;3.25;;
14203;SDS011;7185;51.854;6.622;2023-06-14T05:04:19;6.63;;;2.97;;
14203;SDS011;7185;51.854;6.622;2023-06-14T05:06:51;7.65;;;3.03;;
14203;SDS011;7185;51.854;6.622;2023-06-14T05:09:24;8.02;;;2.83;;
14203;SDS011;7185;51.854;6.622;2023-06-14T05:11:57;6.60;;;3.00;;
14203;SDS011;7185;51.854;6.622;2023-06-14T05:14:31;7.25;;;3.40;;
14203;SDS011;7185;51.854;6.622;2023-06-14T05:17:02;7.47;;;3.15;;
14203;SDS011;7185;51.854;6.622;2023-06-14T05:19:34;5.70;;;3.10;;
14203;SDS011;7185;51.854;6.622;2023-06-14T05:22:05;8.20;;;3.35;;
14203;SDS011;7185;51.854;6.622;2023-06-14T05:24:37;7.15;;;3.22;;
14203;SDS011;7185;51.854;6.622;2023-06-14T05:27:10;7.03;;;3.15;;
14203;SDS011;7185;51.854;6.622;2023-06-14T05:29:42;5.50;;;3.03;;
14203;SDS011;7185;51.854;6.622;2023-06-14T05:32:13;6.13;;;2.92;;
14203;SDS011;7185;51.854;6.622;2023-06-14T05:34:45;5.82;;;3.20;;
14203;SDS011;7185;51.854;6.622;2023-06-14T05:37:16;6.63;;;2.60;;
14203;SDS011;7185;51.854;6.622;2023-06-14T05:39:47;7.18;;;3.15;;
14203;SDS011;7185;51.854;6.622;2023-06-14T05:42:20;6.10;;;3.00;;
14203;SDS011;7185;51.854;6.622;2023-06-14T05:44:52;6.38;;;2.80;;
14203;SDS011;7185;51.854;6.622;2023-06-14T05:47:24;5.88;;;2.97;;
14203;SDS011;7185;51.854;6.622;2023-06-14T05:49:56;5.22;;;2.90;;
14203;SDS011;7185;51.854;6.622;2023-06-14T05:52:27;5.72;;;2.90;;
14203;SDS011;7185;51.854;6.622;2023-06-14T05:54:59;5.50;;;2.70;;
14203;SDS011;7185;51.854;6.622;2023-06-14T05:57:33;11.27;;;3.30;;
14203;SDS011;7185;51.854;6.622;2023-06-14T06:00:05;6.85;;;2.67;;
14203;SDS011;7185;51.854;6.622;2023-06-14T06:02:41;8.02;;;2.83;;
14203;SDS011;7185;51.854;6.622;2023-06-14T06:05:13;6.25;;;2.85;;
14203;SDS011;7185;51.854;6.622;2023-06-14T06:07:45;7.97;;;3.08;;
14203;SDS011;7185;51.854;6.622;2023-06-14T06:10:17;8.70;;;3.15;;
14203;SDS011;7185;51.854;6.622;2023-06-14T06:12:49;7.18;;;2.90;;
14203;SDS011;7185;51.854;6.622;2023-06-14T06:15:22;11.23;;;2.90;;
14203;SDS011;7185;51.854;6.622;2023-06-14T06:17:53;7.05;;;2.90;;
14203;SDS011;7185;51.854;6.622;2023-06-14T06:20:25;4.70;;;2.60;;
14203;SDS011;7185;51.854;6.622;2023-06-14T06:22:58;8.88;;;2.90;;
14203;SDS011;7185;51.854;6.622;2023-06-14T06:25:30;7.95;;;2.90;;
14203;SDS011;7185;51.854;6.622;2023-06-14T06:28:03;6.75;;;2.63;;
14203;SDS011;7185;51.854;6.622;2023-06-14T06:30:35;9.00;;;2.97;;
14203;SDS011;7185;51.854;6.622;2023-06-14T06:33:07;4.93;;;2.60;;
14203;SDS011;7185;51.854;6.622;2023-06-14T06:35:38;7.20;;;2.80;;
14203;SDS011;7185;51.854;6.622;2023-06-14T06:38:10;5.78;;;2.58;;
14203;SDS011;7185;51.854;6.622;2023-06-14T06:40:41;7.45;;;2.78;;
14203;SDS011;7185;51.854;6.622;2023-06-14T06:43:14;4.43;;;2.50;;
14203;SDS011;7185;51.854;6.622;2023-06-14T06:45:47;5.65;;;2.47;;
14203;SDS011;7185;51.854;6.622;2023-06-14T06:48:18;10.68;;;2.75;;
14203;SDS011;7185;51.854;6.622;2023-06-14T06:50:50;3.55;;;2.13;;
14203;SDS011;7185;51.854;6.622;2023-06-14T06:53:22;4.55;;;2.30;;
14203;SDS011;7185;51.854;6.622;2023-06-14T06:55:53;5.10;;;2.28;;
14203;SDS011;7185;51.854;6.622;2023-06-14T06:58:26;9.48;;;2.70;;
14203;SDS011;7185;51.854;6.622;2023-06-14T07:00:58;6.18;;;2.78;;
14203;SDS011;7185;51.854;6.622;2023-06-14T07:03:29;10.13;;;2.45;;
14203;SDS011;7185;51.854;6.622;2023-06-14T07:06:01;5.38;;;2.22;;
14203;SDS011;7185;51.854;6.622;2023-06-14T07:08:32;5.65;;;2.10;;
14203;SDS011;7185;51.854;6.622;2023-06-14T07:11:04;5.00;;;2.25;;
14203;SDS011;7185;51.854;6.622;2023-06-14T07:13:37;5.47;;;2.45;;
14203;SDS011;7185;51.854;6.622;2023-06-14T07:16:09;7.95;;;2.20;;
14203;SDS011;7185;51.854;6.622;2023-06-14T07:18:40;3.03;;;2.10;;
14203;SDS011;7185;51.854;6.622;2023-06-14T07:21:12;7.13;;;2.50;;
14203;SDS011;7185;51.854;6.622;2023-06-14T07:23:43;6.90;;;2.35;;
14203;SDS011;7185;51.854;6.622;2023-06-14T07:26:15;6.47;;;2.50;;
14203;SDS011;7185;51.854;6.622;2023-06-14T07:28:48;7.68;;;2.50;;
14203;SDS011;7185;51.854;6.622;2023-06-14T07:31:19;3.95;;;1.90;;
14203;SDS011;7185;51.854;6.622;2023-06-14T07:33:51;4.72;;;2.00;;
14203;SDS011;7185;51.854;6.622;2023-06-14T07:36:23;5.22;;;2.28;;
14203;SDS011;7185;51.854;6.622;2023-06-14T07:38:54;9.13;;;2.47;;
14203;SDS011;7185;51.854;6.622;2023-06-14T07:41:26;5.35;;;2.03;;
14203;SDS011;7185;51.854;6.622;2023-06-14T07:43:59;5.45;;;2.30;;
14203;SDS011;7185;51.854;6.622;2023-06-14T07:46:30;5.05;;;2.25;;
14203;SDS011;7185;51.854;6.622;2023-06-14T07:49:01;5.88;;;2.35;;
14203;SDS011;7185;51.854;6.622;2023-06-14T07:51:33;4.63;;;2.00;;
14203;SDS011;7185;51.854;6.622;2023-06-14T07:54:05;6.28;;;2.50;;
14203;SDS011;7185;51.854;6.622;2023-06-14T07:56:37;4.60;;;2.10;;
14203;SDS011;7185;51.854;6.622;2023-06-14T07:59:10;5.60;;;2.40;;
14203;SDS011;7185;51.854;6.622;2023-06-14T08:01:41;7.10;;;2.40;;
14203;SDS011;7185;51.854;6.622;2023-06-14T08:04:17;9.07;;;2.30;;
14203;SDS011;7185;51.854;6.622;2023-06-14T08:06:48;4.35;;;2.58;;
14203;SDS011;7185;51.854;6.622;2023-06-14T08:09:20;6.60;;;2.20;;
14203;SDS011;7185;51.854;6.622;2023-06-14T08:11:52;6.28;;;2.85;;
14203;SDS011;7185;51.854;6.622;2023-06-14T08:14:25;11.95;;;2.83;;
14203;SDS011;7185;51.854;6.622;2023-06-14T08:16:56;10.23;;;2.80;;
14203;SDS011;7185;51.854;6.622;2023-06-14T08:19:28;4.47;;;2.20;;
14203;SDS011;7185;51.854;6.622;2023-06-14T08:22:00;3.95;;;1.98;;
14203;SDS011;7185;51.854;6.622;2023-06-14T08:24:31;7.50;;;2.50;;
14203;SDS011;7185;51.854;6.622;2023-06-14T08:27:03;5.13;;;2.30;;
14203;SDS011;7185;51.854;6.622;2023-06-14T08:29:36;10.88;;;2.38;;
14203;SDS011;7185;51.854;6.622;2023-06-14T08:32:09;4.15;;;2.10;;
14203;SDS011;7185;51.854;6.622;2023-06-14T08:34:40;7.30;;;2.50;;
14203;SDS011;7185;51.854;6.622;2023-06-14T08:37:12;4.57;;;2.25;;
14203;SDS011;7185;51.854;6.622;2023-06-14T08:39:43;4.63;;;2.20;;
14203;SDS011;7185;51.854;6.622;2023-06-14T08:42:15;5.53;;;1.75;;
14203;SDS011;7185;51.854;6.622;2023-06-14T08:44:50;3.10;;;1.60;;
14203;SDS011;7185;51.854;6.622;2023-06-14T08:47:21;4.90;;;1.55;;
14203;SDS011;7185;51.854;6.622;2023-06-14T08:49:55;3.30;;;1.80;;
14203;SDS011;7185;51.854;6.622;2023-06-14T08:52:28;3.28;;;1.60;;
14203;SDS011;7185;51.854;6.622;2023-06-14T08:55:04;6.70;;;1.70;;
14203;SDS011;7185;51.854;6.622;2023-06-14T08:57:35;6.05;;;1.92;;
14203;SDS011;7185;51.854;6.622;2023-06-14T09:00:10;5.97;;;1.73;;
14203;SDS011;7185;51.854;6.622;2023-06-14T09:02:43;5.75;;;1.63;;
14203;SDS011;7185;51.854;6.622;2023-06-14T09:05:15;3.97;;;1.85;;
14203;SDS011;7185;51.854;6.622;2023-06-14T09:07:48;4.95;;;1.73;;
14203;SDS011;7185;51.854;6.622;2023-06-14T09:10:20;4.93;;;1.48;;
14203;SDS011;7185;51.854;6.622;2023-06-14T09:12:52;4.97;;;1.75;;
14203;SDS011;7185;51.854;6.622;2023-06-14T09:15:25;5.05;;;1.77;;
14203;SDS011;7185;51.854;6.622;2023-06-14T09:17:56;4.22;;;1.77;;
14203;SDS011;7185;51.854;6.622;2023-06-14T09:20:29;4.85;;;1.63;;
14203;SDS011;7185;51.854;6.622;2023-06-14T09:23:01;4.95;;;1.70;;
14203;SDS011;7185;51.854;6.622;2023-06-14T09:25:32;6.18;;;1.60;;
14203;SDS011;7185;51.854;6.622;2023-06-14T09:28:05;7.75;;;1.88;;
14203;SDS011;7185;51.854;6.622;2023-06-14T09:30:38;4.53;;;1.90;;
14203;SDS011;7185;51.854;6.622;2023-06-14T09:33:10;3.25;;;1.73;;
14203;SDS011;7185;51.854;6.622;2023-06-14T09:35:42;2.95;;;1.73;;
14203;SDS011;7185;51.854;6.622;2023-06-14T09:38:16;7.47;;;1.85;;
14203;SDS011;7185;51.854;6.622;2023-06-14T09:40:47;6.22;;;1.50;;
14203;SDS011;7185;51.854;6.622;2023-06-14T09:43:20;2.30;;;1.60;;
14203;SDS011;7185;51.854;6.622;2023-06-14T09:45:53;3.65;;;1.60;;
14203;SDS011;7185;51.854;6.622;2023-06-14T09:48:25;5.85;;;1.65;;
14203;SDS011;7185;51.854;6.622;2023-06-14T09:50:56;9.95;;;1.92;;
14203;SDS011;7185;51.854;6.622;2023-06-14T09:53:29;7.28;;;1.70;;
14203;SDS011;7185;51.854;6.622;2023-06-14T09:56:01;3.60;;;1.70;;
14203;SDS011;7185;51.854;6.622;2023-06-14T09:58:32;3.47;;;1.88;;
14203;SDS011;7185;51.854;6.622;2023-06-14T10:01:08;4.10;;;1.70;;
14203;SDS011;7185;51.854;6.622;2023-06-14T10:03:40;5.07;;;1.60;;
14203;SDS011;7185;51.854;6.622;2023-06-14T10:06:12;7.28;;;2.13;;
14203;SDS011;7185;51.854;6.622;2023-06-14T10:08:43;7.18;;;2.10;;
14203;SDS011;7185;51.854;6.622;2023-06-14T10:11:16;2.80;;;1.63;;
14203;SDS011;7185;51.854;6.622;2023-06-14T10:13:48;5.47;;;2.03;;
14203;SDS011;7185;51.854;6.622;2023-06-14T10:16:23;6.40;;;1.90;;
14203;SDS011;7185;51.854;6.622;2023-06-14T10:18:59;4.63;;;1.70;;
14203;SDS011;7185;51.854;6.622;2023-06-14T10:21:36;3.58;;;1.80;;
14203;SDS011;7185;51.854;6.622;2023-06-14T10:26:49;6.10;;;2.03;;
14203;SDS011;7185;51.854;6.622;2023-06-14T10:29:21;5.55;;;1.95;;
14203;SDS011;7185;51.854;6.622;2023-06-14T10:31:56;7.90;;;1.50;;
14203;SDS011;7185;51.854;6.622;2023-06-14T10:34:29;5.10;;;1.98;;
14203;SDS011;7185;51.854;6.622;2023-06-14T10:37:02;3.67;;;1.77;;
14203;SDS011;7185;51.854;6.622;2023-06-14T10:39:38;4.53;;;1.80;;
14203;SDS011;7185;51.854;6.622;2023-06-14T10:42:10;3.65;;;1.58;;
14203;SDS011;7185;51.854;6.622;2023-06-14T10:44:42;3.80;;;1.70;;
14203;SDS011;7185;51.854;6.622;2023-06-14T10:47:23;3.60;;;1.50;;
14203;SDS011;7185;51.854;6.622;2023-06-14T10:49:55;4.57;;;1.55;;
14203;SDS011;7185;51.854;6.622;2023-06-14T10:52:27;3.25;;;1.77;;
14203;SDS011;7185;51.854;6.622;2023-06-14T10:54:59;2.83;;;1.52;;
14203;SDS011;7185;51.854;6.622;2023-06-14T10:57:31;4.63;;;1.77;;
14203;SDS011;7185;51.854;6.622;2023-06-14T11:00:03;2.97;;;1.50;;
14203;SDS011;7185;51.854;6.622;2023-06-14T11:02:48;5.38;;;1.55;;
14203;SDS011;7185;51.854;6.622;2023-06-14T11:05:23;3.75;;;1.75;;
14203;SDS011;7185;51.854;6.622;2023-06-14T11:07:58;4.93;;;1.38;;
14203;SDS011;7185;51.854;6.622;2023-06-14T11:10:36;2.28;;;1.50;;
14203;SDS011;7185;51.854;6.622;2023-06-14T11:13:08;3.88;;;1.60;;
14203;SDS011;7185;51.854;6.622;2023-06-14T11:15:43;3.13;;;1.67;;
14203;SDS011;7185;51.854;6.622;2023-06-14T11:18:16;2.55;;;1.40;;
14203;SDS011;7185;51.854;6.622;2023-06-14T11:20:48;4.10;;;1.45;;
14203;SDS011;7185;51.854;6.622;2023-06-14T11:23:20;4.72;;;1.50;;
14203;SDS011;7185;51.854;6.622;2023-06-14T11:25:52;3.13;;;1.40;;
14203;SDS011;7185;51.854;6.622;2023-06-14T11:28:24;6.82;;;1.38;;
14203;SDS011;7185;51.854;6.622;2023-06-14T11:30:59;6.20;;;1.38;;
14203;SDS011;7185;51.854;6.622;2023-06-14T11:33:32;3.45;;;1.10;;
14203;SDS011;7185;51.854;6.622;2023-06-14T11:36:04;5.13;;;1.38;;
14203;SDS011;7185;51.854;6.622;2023-06-14T11:38:37;3.03;;;1.20;;
14203;SDS011;7185;51.854;6.622;2023-06-14T11:41:09;2.35;;;1.40;;
14203;SDS011;7185;51.854;6.622;2023-06-14T11:43:40;3.75;;;1.23;;
14203;SDS011;7185;51.854;6.622;2023-06-14T11:46:12;4.30;;;1.27;;
14203;SDS011;7185;51.854;6.622;2023-06-14T11:48:45;4.22;;;1.40;;
14203;SDS011;7185;51.854;6.622;2023-06-14T11:51:17;4.03;;;1.42;;
14203;SDS011;7185;51.854;6.622;2023-06-14T11:53:50;3.45;;;1.17;;
14203;SDS011;7185;51.854;6.622;2023-06-14T11:56:21;5.70;;;1.27;;
14203;SDS011;7185;51.854;6.622;2023-06-14T11:58:53;3.35;;;1.23;;
14203;SDS011;7185;51.854;6.622;2023-06-14T12:01:26;4.78;;;1.33;;
14203;SDS011;7185;51.854;6.622;2023-06-14T12:03:59;4.63;;;1.05;;
14203;SDS011;7185;51.854;6.622;2023-06-14T12:06:31;1.88;;;1.15;;
14203;SDS011;7185;51.854;6.622;2023-06-14T12:09:06;5.28;;;1.17;;
14203;SDS011;7185;51.854;6.622;2023-06-14T12:11:42;4.18;;;1.00;;
14203;SDS011;7185;51.854;6.622;2023-06-14T12:14:14;5.90;;;1.30;;
14203;SDS011;7185;51.854;6.622;2023-06-14T12:16:46;3.00;;;1.10;;
14203;SDS011;7185;51.854;6.622;2023-06-14T12:19:19;5.35;;;1.42;;
14203;SDS011;7185;51.854;6.622;2023-06-14T12:21:51;2.72;;;1.20;;
14203;SDS011;7185;51.854;6.622;2023-06-14T12:24:23;3.95;;;1.23;;
14203;SDS011;7185;51.854;6.622;2023-06-14T12:26:59;8.40;;;2.10;;
14203;SDS011;7185;51.854;6.622;2023-06-14T12:29:33;6.75;;;1.70;;
14203;SDS011;7185;51.854;6.622;2023-06-14T12:32:05;2.40;;;1.10;;
14203;SDS011;7185;51.854;6.622;2023-06-14T12:34:39;5.05;;;1.48;;
14203;SDS011;7185;51.854;6.622;2023-06-14T12:37:11;4.90;;;1.23;;
14203;SDS011;7185;51.854;6.622;2023-06-14T12:39:43;3.67;;;1.20;;
14203;SDS011;7185;51.854;6.622;2023-06-14T12:42:14;6.60;;;1.45;;
14203;SDS011;7185;51.854;6.622;2023-06-14T12:44:46;4.25;;;1.50;;
14203;SDS011;7185;51.854;6.622;2023-06-14T12:47:17;5.80;;;1.20;;
14203;SDS011;7185;51.854;6.622;2023-06-14T12:49:50;3.65;;;1.30;;
14203;SDS011;7185;51.854;6.622;2023-06-14T12:52:22;4.93;;;1.20;;
14203;SDS011;7185;51.854;6.622;2023-06-14T12:54:53;4.05;;;1.27;;
14203;SDS011;7185;51.854;6.622;2023-06-14T12:57:25;4.60;;;1.27;;
14203;SDS011;7185;51.854;6.622;2023-06-14T12:59:56;3.92;;;1.42;;
14203;SDS011;7185;51.854;6.622;2023-06-14T13:02:28;2.75;;;1.20;;
14203;SDS011;7185;51.854;6.622;2023-06-14T13:05:00;3.25;;;1.40;;
14203;SDS011;7185;51.854;6.622;2023-06-14T13:07:34;3.60;;;1.10;;
14203;SDS011;7185;51.854;6.622;2023-06-14T13:10:06;4.30;;;1.30;;
14203;SDS011;7185;51.854;6.622;2023-06-14T13:12:37;5.25;;;2.25;;
14203;SDS011;7185;51.854;6.622;2023-06-14T13:15:09;4.50;;;1.52;;
14203;SDS011;7185;51.854;6.622;2023-06-14T13:17:40;4.38;;;1.40;;
14203;SDS011;7185;51.854;6.622;2023-06-14T13:20:15;3.75;;;1.35;;
14203;SDS011;7185;51.854;6.622;2023-06-14T13:22:47;4.82;;;1.45;;
14203;SDS011;7185;51.854;6.622;2023-06-14T13:25:18;5.40;;;1.63;;
14203;SDS011;7185;51.854;6.622;2023-06-14T13:27:50;8.02;;;1.55;;
14203;SDS011;7185;51.854;6.622;2023-06-14T13:30:21;5.00;;;1.60;;
14203;SDS011;7185;51.854;6.622;2023-06-14T13:32:53;4.38;;;1.50;;
14203;SDS011;7185;51.854;6.622;2023-06-14T13:35:27;2.28;;;1.42;;
14203;SDS011;7185;51.854;6.622;2023-06-14T13:37:58;2.78;;;1.60;;
14203;SDS011;7185;51.854;6.622;2023-06-14T13:40:30;6.65;;;1.40;;
14203;SDS011;7185;51.854;6.622;2023-06-14T13:43:01;2.97;;;1.75;;
14203;SDS011;7185;51.854;6.622;2023-06-14T13:45:33;2.60;;;1.60;;
14203;SDS011;7185;51.854;6.622;2023-06-14T13:48:05;7.95;;;1.67;;
14203;SDS011;7185;51.854;6.622;2023-06-14T13:50:38;4.13;;;1.63;;
14203;SDS011;7185;51.854;6.622;2023-06-14T13:53:09;3.13;;;1.70;;
14203;SDS011;7185;51.854;6.622;2023-06-14T13:55:41;5.07;;;1.80;;
14203;SDS011;7185;51.854;6.622;2023-06-14T13:58:12;5.28;;;1.60;;
14203;SDS011;7185;51.854;6.622;2023-06-14T14:00:45;2.47;;;1.58;;
14203;SDS011;7185;51.854;6.622;2023-06-14T14:03:16;4.90;;;1.60;;
14203;SDS011;7185;51.854;6.622;2023-06-14T14:05:51;4.70;;;1.80;;
14203;SDS011;7185;51.854;6.622;2023-06-14T14:08:22;4.97;;;1.77;;
14203;SDS011;7185;51.854;6.622;2023-06-14T14:10:54;3.55;;;1.70;;
14203;SDS011;7185;51.854;6.622;2023-06-14T14:13:26;3.20;;;1.60;;
14203;SDS011;7185;51.854;6.622;2023-06-14T14:15:57;6.45;;;1.88;;
14203;SDS011;7185;51.854;6.622;2023-06-14T14:18:29;3.47;;;1.70;;
14203;SDS011;7185;51.854;6.622;2023-06-14T14:21:02;5.63;;;2.00;;
14203;SDS011;7185;51.854;6.622;2023-06-14T14:23:34;4.55;;;1.85;;
14203;SDS011;7185;51.854;6.622;2023-06-14T14:26:05;3.92;;;2.00;;
14203;SDS011;7185;51.854;6.622;2023-06-14T14:28:36;6.95;;;1.90;;
14203;SDS011;7185;51.854;6.622;2023-06-14T14:31:10;4.95;;;1.75;;
14203;SDS011;7185;51.854;6.622;2023-06-14T14:33:41;5.90;;;2.05;;
14203;SDS011;7185;51.854;6.622;2023-06-14T14:36:15;4.57;;;1.90;;
14203;SDS011;7185;51.854;6.622;2023-06-14T14:38:46;7.90;;;2.20;;
14203;SDS011;7185;51.854;6.622;2023-06-14T14:41:18;5.30;;;2.03;;
14203;SDS011;7185;51.854;6.622;2023-06-14T14:43:49;3.35;;;1.90;;
14203;SDS011;7185;51.854;6.622;2023-06-14T14:46:21;5.72;;;1.75;;
14203;SDS011;7185;51.854;6.622;2023-06-14T14:48:52;3.65;;;1.80;;
14203;SDS011;7185;51.854;6.622;2023-06-14T14:51:25;3.15;;;2.03;;
14203;SDS011;7185;51.854;6.622;2023-06-14T14:53:56;6.05;;;2.00;;
14203;SDS011;7185;51.854;6.622;2023-06-14T14:56:28;4.30;;;2.00;;
14203;SDS011;7185;51.854;6.622;2023-06-14T14:58:59;3.03;;;1.98;;
14203;SDS011;7185;51.854;6.622;2023-06-14T15:01:31;6.22;;;2.10;;
14203;SDS011;7185;51.854;6.622;2023-06-14T15:04:02;4.47;;;2.30;;
14203;SDS011;7185;51.854;6.622;2023-06-14T15:06:35;3.95;;;1.92;;
14203;SDS011;7185;51.854;6.622;2023-06-14T15:09:08;3.72;;;1.92;;
14203;SDS011;7185;51.854;6.622;2023-06-14T15:15:07;2.60;;;1.73;;
14203;SDS011;7185;51.854;6.622;2023-06-14T15:17:39;4.28;;;2.00;;
14203;SDS011;7185;51.854;6.622;2023-06-14T15:20:11;4.68;;;2.00;;
14203;SDS011;7185;51.854;6.622;2023-06-14T15:22:45;3.47;;;2.00;;
14203;SDS011;7185;51.854;6.622;2023-06-14T15:25:16;3.90;;;2.50;;
14203;SDS011;7185;51.854;6.622;2023-06-14T15:27:48;2.40;;;1.80;;
14203;SDS011;7185;51.854;6.622;2023-06-14T15:30:19;4.00;;;2.40;;
14203;SDS011;7185;51.854;6.622;2023-06-14T15:32:51;5.22;;;2.20;;
14203;SDS011;7185;51.854;6.622;2023-06-14T15:35:22;3.95;;;1.92;;
14203;SDS011;7185;51.854;6.622;2023-06-14T15:37:58;6.05;;;2.22;;
14203;SDS011;7185;51.854;6.622;2023-06-14T15:40:29;5.83;;;2.27;;
14203;SDS011;7185;51.854;6.622;2023-06-14T15:43:01;4.30;;;2.47;;
14203;SDS011;7185;51.854;6.622;2023-06-14T15:45:33;6.70;;;2.25;;
14203;SDS011;7185;51.854;6.622;2023-06-14T15:48:07;4.38;;;1.90;;
14203;SDS011;7185;51.854;6.622;2023-06-14T15:50:39;4.78;;;2.17;;
14203;SDS011;7185;51.854;6.622;2023-06-14T15:53:11;3.97;;;2.00;;
14203;SDS011;7185;51.854;6.622;2023-06-14T15:55:43;3.45;;;2.00;;
14203;SDS011;7185;51.854;6.622;2023-06-14T15:58:14;2.72;;;1.98;;
14203;SDS011;7185;51.854;6.622;2023-06-14T16:00:46;4.82;;;2.80;;
14203;SDS011;7185;51.854;6.622;2023-06-14T16:03:18;3.53;;;1.90;;
14203;SDS011;7185;51.854;6.622;2023-06-14T16:05:49;3.42;;;1.80;;
14203;SDS011;7185;51.854;6.622;2023-06-14T16:08:22;3.35;;;1.73;;
14203;SDS011;7185;51.854;6.622;2023-06-14T16:10:53;3.38;;;1.92;;